Denver, CO (80216)

1:19 PM MDT on October 30, 2014 (GMT -0600)
Geography and Env. Sciences, CU Denver | Change Station
CLOSE
Current Station
Personal Weather Station
Location: Denver, CO
Elevation: 5225 ft
Nearby Weather Stations

Elev 5225 ft 39.75 °N, 105.00 °W | Updated 3 minutes ago

Clear
Clear
60.8 °F
Feels Like 60.8 °F
N
4.0
Wind Variable Wind from South
Gusts 12.0 mph

Today
High -- | Low -- °F
--% Chance of Precip.
Yesterday
High -- | Low -- °F
Precip. -- in
7:26 AM 6:00 PM
Waxing Crescent, 46% visible
Pressure 30.28 in
Visibility 10.0 miles
Clouds Few 14000 ft
Few 22000 ft
Dew Point 28 °F
Humidity 29%
Rainfall 0.00 in
Snow Depth Not available.
UV 6.5 out of 12
Pollen 1.20 out of 12
Air Quality Not available.
Flu Activity Not available.
METAR KAPA 301853Z 15004KT 10SM FEW140 FEW220 14/M03 A3035 RMK AO2 SLP253 T01391033

More Conditions Fewer Conditions

Pressure 30.28 in
Visibility 10.0 miles
Clouds Few 14000 ft
Few 22000 ft
Dew Point 28 °F
Humidity 29%
Rainfall 0.00 in
Snow Depth Not available.
UV 6.5 out of 12
Pollen 1.20 out of 12
Air Quality Not available.
Flu Activity Not available.
METAR KAPA 301853Z 15004KT 10SM FEW140 FEW220 14/M03 A3035 RMK AO2 SLP253 T01391033

More Conditions Fewer Conditions

10-Day Weather Forecast

Almanac

Astronomy

Oct. 30, 2014 Rise Set
Actual Time
Civil Twilight
Nautical Twilight
Astronomical Twilight
Moon
Length of Visible Light
Length of Day
Tomorrow will be .
, % of the Moon is Illuminated

Today's Extremes

State Highs State Lows

Community

WunderPhotos

Upload Photos

1,766,451 photos uploaded!

WunderBlogs® & News

Nearby

Air Quality

  Air Quality AQ Index Pollutant
Not available.

Snow Depth

Station Depth Elevation

Earthquake Activity

City Distance Mag. Time & Date
Minimum magnitude displayed is 2.5.

Coastal Water Temperatures

Place Temperature

Nearby Weather Stations